Time;durP1;ratioP1;P1;durP2;ratioP2;P2;SDS_P1;SDS_P2;PMS_P1;PMS_P2;Temp;Humidity;BMP_temperature;BMP_pressure;BME280_temperature;BME280_humidity;BME280_pressure;Samples;Min_cycle;Max_cycle;Signal;HPM_P1;HPM_P2
2020/12/25 00:00:16;;;;;;;3.83;3.00;;;7.80;99.90;;;;;;5035224;28;20567;-57
2020/12/25 00:02:41;;;;;;;3.37;3.10;;;7.60;99.90;;;;;;5035649;28;20222;-51
2020/12/25 00:05:07;;;;;;;2.90;2.70;;;7.60;99.90;;;;;;5035722;28;20532;-56
2020/12/25 00:07:34;;;;;;;3.50;3.20;;;7.60;99.90;;;;;;5034842;28;20254;-52
2020/12/25 00:09:59;;;;;;;4.33;3.93;;;7.50;99.90;;;;;;5035344;28;20271;-54
2020/12/25 00:12:25;;;;;;;3.50;3.20;;;7.50;99.90;;;;;;5035335;28;20633;-52
2020/12/25 00:14:50;;;;;;;4.03;3.60;;;7.50;99.90;;;;;;5035424;28;20584;-54
2020/12/25 00:17:17;;;;;;;4.50;4.10;;;7.40;99.90;;;;;;5034661;28;20190;-54
2020/12/25 00:19:42;;;;;;;3.97;3.57;;;7.50;99.90;;;;;;5036251;28;20194;-53
2020/12/25 00:22:11;;;;;;;3.97;3.67;;;7.60;99.90;;;;;;5034858;28;20188;-58
2020/12/25 00:24:36;;;;;;;5.27;4.77;;;7.70;99.90;;;;;;5035416;28;20180;-56
2020/12/25 00:27:02;;;;;;;4.43;4.00;;;7.60;99.90;;;;;;5035077;28;20221;-55
2020/12/25 00:29:27;;;;;;;3.73;3.43;;;7.70;99.90;;;;;;5035512;28;20237;-57
2020/12/25 00:31:53;;;;;;;5.13;4.13;;;7.50;99.90;;;;;;5035333;28;20175;-58
2020/12/25 00:34:18;;;;;;;4.90;4.40;;;7.60;99.90;;;;;;5030835;28;20663;-53
2020/12/25 00:36:46;;;;;;;4.10;3.70;;;7.40;99.90;;;;;;5030645;28;20631;-52
2020/12/25 00:39:16;;;;;;;4.37;3.97;;;7.30;99.90;;;;;;5032383;28;20227;-51
2020/12/25 00:41:50;;;;;;;4.03;3.63;;;7.20;99.90;;;;;;5033838;28;20587;-51
2020/12/25 00:44:16;;;;;;;4.83;4.40;;;7.10;99.90;;;;;;5034378;28;20207;-49
2020/12/25 00:46:43;;;;;;;4.30;3.90;;;7.00;99.90;;;;;;5034575;28;20172;-53
2020/12/25 00:49:09;;;;;;;4.00;3.60;;;7.00;99.90;;;;;;5033351;28;20215;-57
2020/12/25 00:51:34;;;;;;;4.13;3.73;;;7.00;99.90;;;;;;5032344;28;20195;-51
2020/12/25 00:54:00;;;;;;;4.70;4.30;;;6.90;99.90;;;;;;5033397;28;20235;-55
2020/12/25 00:56:25;;;;;;;4.70;4.30;;;6.90;99.90;;;;;;5034150;28;20222;-56
2020/12/25 00:58:51;;;;;;;4.50;4.10;;;6.90;99.90;;;;;;5031500;28;20220;-54
2020/12/25 01:01:17;;;;;;;4.67;4.27;;;6.90;99.90;;;;;;5033517;28;20194;-50
2020/12/25 01:03:44;;;;;;;5.20;4.70;;;7.00;99.90;;;;;;5033691;28;20274;-51
2020/12/25 01:06:09;;;;;;;4.80;4.30;;;7.10;99.90;;;;;;5033888;28;20191;-58
2020/12/25 01:08:35;;;;;;;4.20;3.80;;;7.20;99.90;;;;;;5032114;28;20207;-52
2020/12/25 01:11:00;;;;;;;4.07;3.70;;;7.30;99.90;;;;;;5033821;28;20227;-50
2020/12/25 01:13:26;;;;;;;4.20;3.60;;;7.40;99.90;;;;;;5033759;28;20651;-53
2020/12/25 01:15:52;;;;;;;4.37;3.97;;;7.40;99.90;;;;;;5034787;28;20684;-50
2020/12/25 01:18:17;;;;;;;4.67;4.23;;;7.40;99.90;;;;;;5031597;28;20279;-57
2020/12/25 01:20:43;;;;;;;5.10;4.60;;;7.30;99.90;;;;;;5033310;28;20275;-56
2020/12/25 01:23:08;;;;;;;4.23;3.83;;;7.30;99.90;;;;;;5033932;28;20267;-58
2020/12/25 01:25:34;;;;;;;4.20;3.80;;;7.30;99.90;;;;;;5034230;28;20172;-50
2020/12/25 01:27:59;;;;;;;4.90;4.40;;;7.30;99.90;;;;;;5033572;28;20207;-49
2020/12/25 01:30:25;;;;;;;3.90;3.40;;;7.40;99.90;;;;;;5029515;28;20261;-50
2020/12/25 01:32:50;;;;;;;4.40;4.00;;;7.40;99.90;;;;;;5032882;28;20215;-55
2020/12/25 01:35:16;;;;;;;4.23;3.77;;;7.40;99.90;;;;;;5033332;28;20175;-50
2020/12/25 01:37:42;;;;;;;3.77;3.47;;;7.50;99.90;;;;;;5033513;28;20210;-56
2020/12/25 01:40:07;;;;;;;5.30;4.80;;;7.60;99.90;;;;;;5030792;28;20183;-53
2020/12/25 01:42:34;;;;;;;5.43;4.93;;;7.60;99.90;;;;;;5033699;28;20237;-54
2020/12/25 01:45:01;;;;;;;4.70;4.30;;;7.40;99.90;;;;;;5033592;28;20188;-52
2020/12/25 01:47:26;;;;;;;6.60;5.90;;;7.40;99.90;;;;;;5037398;28;20191;-52
2020/12/25 01:49:53;;;;;;;6.13;5.53;;;7.30;99.90;;;;;;5029835;28;20199;-49
2020/12/25 01:52:19;;;;;;;5.93;5.43;;;7.30;99.90;;;;;;5037474;28;20200;-57
2020/12/25 01:54:46;;;;;;;5.33;4.83;;;7.30;99.90;;;;;;5037853;28;20195;-55
2020/12/25 01:57:13;;;;;;;6.80;6.10;;;7.20;99.90;;;;;;5037281;28;20204;-52
2020/12/25 01:59:40;;;;;;;5.17;4.77;;;7.20;99.90;;;;;;5034857;28;20215;-55
2020/12/25 02:02:06;;;;;;;5.57;5.07;;;7.20;99.90;;;;;;5037059;28;20255;-54
2020/12/25 02:04:32;;;;;;;5.30;4.80;;;7.20;99.90;;;;;;5036853;28;20187;-51
2020/12/25 02:06:58;;;;;;;5.70;5.13;;;7.20;99.90;;;;;;5037341;28;20176;-57
2020/12/25 02:09:23;;;;;;;5.43;4.93;;;7.20;99.90;;;;;;5034569;28;20227;-50
2020/12/25 02:11:49;;;;;;;6.27;5.67;;;7.30;99.90;;;;;;5037035;28;20628;-56
2020/12/25 02:14:14;;;;;;;5.53;5.03;;;7.30;99.90;;;;;;5037048;28;20187;-56
2020/12/25 02:16:41;;;;;;;5.40;4.90;;;7.30;99.90;;;;;;5037150;28;20547;-54
2020/12/25 02:19:08;;;;;;;6.30;5.70;;;7.30;99.90;;;;;;5034159;28;20633;-51
2020/12/25 02:21:33;;;;;;;5.30;4.80;;;7.20;99.90;;;;;;5036649;28;20187;-51
2020/12/25 02:23:59;;;;;;;6.80;6.10;;;7.20;99.90;;;;;;5036880;28;20275;-53
2020/12/25 02:26:24;;;;;;;5.67;5.17;;;7.30;99.90;;;;;;5037200;28;20184;-55
2020/12/25 02:28:51;;;;;;;5.60;5.10;;;7.30;99.90;;;;;;5033787;28;20228;-55
2020/12/25 02:31:16;;;;;;;5.33;4.83;;;7.30;99.90;;;;;;5034746;28;20202;-56
2020/12/25 02:33:42;;;;;;;5.23;4.73;;;7.30;99.90;;;;;;5036659;28;20207;-52
2020/12/25 02:36:07;;;;;;;5.20;4.17;;;7.20;99.90;;;;;;5036636;28;20184;-49
2020/12/25 02:38:33;;;;;;;5.10;4.27;;;7.20;99.90;;;;;;5034223;28;20286;-51
2020/12/25 02:40:58;;;;;;;4.87;4.47;;;7.20;99.90;;;;;;5036033;28;20259;-49
2020/12/25 02:43:24;;;;;;;4.70;4.30;;;7.10;99.90;;;;;;5036639;28;20624;-55
2020/12/25 02:45:49;;;;;;;4.70;4.30;;;7.20;99.90;;;;;;5036634;28;20539;-58
2020/12/25 02:48:15;;;;;;;4.13;3.83;;;7.20;99.90;;;;;;5036374;28;20208;-56
2020/12/25 02:50:40;;;;;;;4.90;4.40;;;7.40;99.90;;;;;;5036864;28;20180;-51
2020/12/25 02:53:06;;;;;;;4.33;3.93;;;7.50;99.90;;;;;;5036310;28;20239;-51
2020/12/25 02:55:32;;;;;;;3.97;3.57;;;7.60;99.90;;;;;;5036670;28;20175;-53
2020/12/25 02:57:57;;;;;;;4.10;3.70;;;7.70;99.90;;;;;;5035231;28;20688;-54
2020/12/25 03:00:23;;;;;;;4.20;3.80;;;7.90;99.90;;;;;;5036853;28;20894;-56
2020/12/25 03:02:48;;;;;;;4.00;3.70;;;8.00;99.90;;;;;;5036624;28;20191;-55
2020/12/25 03:05:14;;;;;;;4.00;3.70;;;8.10;99.90;;;;;;5036607;28;20172;-58
2020/12/25 03:07:39;;;;;;;3.53;3.23;;;8.30;99.90;;;;;;5036544;28;20199;-53
2020/12/25 03:10:05;;;;;;;2.90;2.70;;;8.30;99.90;;;;;;5019112;28;20528;-50
2020/12/25 03:12:30;;;;;;;0.83;0.83;;;8.10;99.90;;;;;;5036372;28;20551;-54
2020/12/25 03:14:56;;;;;;;0.60;0.60;;;8.00;99.90;;;;;;5036192;28;20179;-56
2020/12/25 03:17:21;;;;;;;0.40;0.40;;;7.90;99.90;;;;;;5036240;28;20176;-58
2020/12/25 03:19:47;;;;;;;0.50;0.50;;;7.80;99.90;;;;;;5037079;28;20266;-54
2020/12/25 03:22:12;;;;;;;0.40;0.40;;;7.80;99.90;;;;;;5036051;28;20218;-51
2020/12/25 03:24:38;;;;;;;0.30;0.30;;;7.80;99.90;;;;;;5036704;28;20176;-54
2020/12/25 03:27:03;;;;;;;0.30;0.30;;;7.60;99.90;;;;;;5035977;28;20180;-53
2020/12/25 03:29:29;;;;;;;0.43;0.30;;;7.70;99.90;;;;;;5036468;28;20211;-55
2020/12/25 03:31:54;;;;;;;0.30;0.30;;;7.60;99.90;;;;;;5036237;28;20605;-53
2020/12/25 03:34:20;;;;;;;0.40;0.40;;;7.60;99.90;;;;;;5036340;28;20314;-51
2020/12/25 03:36:45;;;;;;;0.40;0.40;;;7.50;99.90;;;;;;5036943;28;20183;-55
2020/12/25 03:39:11;;;;;;;1.13;0.70;;;7.50;99.90;;;;;;5037438;28;20200;-54
2020/12/25 03:41:37;;;;;;;0.40;0.40;;;7.40;99.90;;;;;;5036971;28;20184;-54
2020/12/25 03:44:03;;;;;;;0.63;0.60;;;7.40;99.90;;;;;;5036306;28;20176;-55
2020/12/25 03:46:38;;;;;;;1.60;0.87;;;7.40;99.90;;;;;;5037018;28;20186;-53
2020/12/25 03:49:04;;;;;;;0.50;0.50;;;7.30;99.90;;;;;;5035668;28;20207;-57
2020/12/25 03:51:30;;;;;;;0.40;0.40;;;7.30;99.90;;;;;;5036947;28;20183;-52
2020/12/25 03:53:56;;;;;;;0.40;0.40;;;7.20;99.90;;;;;;5028503;28;20220;-54
2020/12/25 03:56:23;;;;;;;0.50;0.50;;;7.20;99.90;;;;;;5032325;28;20682;-56
2020/12/25 03:58:49;;;;;;;1.03;0.70;;;7.20;99.90;;;;;;5035999;28;20219;-53
2020/12/25 04:01:15;;;;;;;2.30;0.87;;;7.20;99.90;;;;;;5035676;28;20175;-49
2020/12/25 04:03:41;;;;;;;0.57;0.57;;;7.20;99.90;;;;;;5033057;28;20200;-51
2020/12/25 04:06:07;;;;;;;0.60;0.60;;;7.20;99.90;;;;;;5035111;28;20237;-52
2020/12/25 04:08:32;;;;;;;0.97;0.67;;;7.20;99.90;;;;;;5034544;28;20210;-51
2020/12/25 04:10:58;;;;;;;0.50;0.50;;;7.10;99.90;;;;;;5032653;28;20666;-57
2020/12/25 04:13:23;;;;;;;1.53;0.50;;;7.00;99.90;;;;;;5036311;28;20206;-51
2020/12/25 04:15:49;;;;;;;0.33;0.33;;;7.00;99.90;;;;;;5036287;28;20168;-49
2020/12/25 04:18:15;;;;;;;0.80;0.60;;;6.90;99.90;;;;;;5033684;28;20208;-52
2020/12/25 04:20:40;;;;;;;0.70;0.70;;;6.90;99.90;;;;;;5032269;28;20183;-50
2020/12/25 04:23:06;;;;;;;0.60;0.60;;;6.80;99.90;;;;;;5026247;28;20610;-52
2020/12/25 04:25:32;;;;;;;0.90;0.60;;;6.80;99.90;;;;;;5035266;28;20184;-57
2020/12/25 04:27:57;;;;;;;0.70;0.70;;;6.70;99.90;;;;;;5034543;28;20200;-55
2020/12/25 04:30:23;;;;;;;0.77;0.60;;;6.60;99.90;;;;;;5032314;28;20207;-57
2020/12/25 04:32:48;;;;;;;0.77;0.50;;;6.50;99.90;;;;;;5035142;28;20257;-52
2020/12/25 04:35:14;;;;;;;0.53;0.40;;;6.40;99.90;;;;;;5034768;28;20655;-49
2020/12/25 04:37:40;;;;;;;0.30;0.30;;;6.30;99.90;;;;;;5033573;28;20220;-50
2020/12/25 04:40:05;;;;;;;1.03;0.60;;;6.30;99.90;;;;;;5032266;28;20184;-52
2020/12/25 04:42:38;;;;;;;0.50;0.30;;;6.30;99.90;;;;;;5036128;28;20220;-54
2020/12/25 04:45:04;;;;;;;0.30;0.30;;;6.30;99.90;;;;;;5030204;28;20175;-57
2020/12/25 04:47:29;;;;;;;0.30;0.30;;;6.30;99.90;;;;;;5035533;28;20245;-54
2020/12/25 04:49:55;;;;;;;0.30;0.30;;;6.30;99.90;;;;;;5032999;28;20655;-53
2020/12/25 04:52:21;;;;;;;0.30;0.30;;;6.30;99.90;;;;;;5016874;28;20211;-50
2020/12/25 04:54:46;;;;;;;0.37;0.37;;;6.20;99.90;;;;;;5016414;28;20184;-50
2020/12/25 04:57:12;;;;;;;0.97;0.60;;;6.20;99.90;;;;;;5034002;28;20267;-56
2020/12/25 04:59:37;;;;;;;0.40;0.40;;;6.10;99.90;;;;;;5033861;28;20297;-52
2020/12/25 05:02:03;;;;;;;0.50;0.50;;;6.00;99.90;;;;;;5034696;28;20190;-57
2020/12/25 05:04:29;;;;;;;1.00;0.40;;;6.00;99.90;;;;;;5029704;28;20207;-51
2020/12/25 05:06:55;;;;;;;0.47;0.30;;;5.90;99.90;;;;;;5027648;28;20632;-49
2020/12/25 05:09:22;;;;;;;0.30;0.30;;;5.90;99.90;;;;;;5032007;28;20204;-53
2020/12/25 05:11:52;;;;;;;0.40;0.40;;;5.90;99.90;;;;;;5034166;28;20262;-57
2020/12/25 05:14:19;;;;;;;0.37;0.37;;;5.80;99.90;;;;;;5035151;28;20231;-50
2020/12/25 05:16:46;;;;;;;0.43;0.43;;;5.80;99.90;;;;;;5033783;28;20185;-51
2020/12/25 05:19:13;;;;;;;0.40;0.40;;;5.90;99.90;;;;;;5035226;28;20195;-52
2020/12/25 05:21:39;;;;;;;0.50;0.50;;;5.90;99.90;;;;;;5033422;28;20654;-57
2020/12/25 05:24:07;;;;;;;0.40;0.40;;;5.90;99.90;;;;;;5035013;28;20191;-53
2020/12/25 05:26:33;;;;;;;0.40;0.40;;;5.80;99.90;;;;;;5035431;28;20179;-49
2020/12/25 05:28:59;;;;;;;0.47;0.47;;;5.80;99.90;;;;;;5035634;28;20239;-49
2020/12/25 05:31:25;;;;;;;0.63;0.50;;;5.80;99.90;;;;;;5034558;28;20218;-52
2020/12/25 05:33:51;;;;;;;0.40;0.40;;;5.90;99.90;;;;;;5034359;28;20207;-56
2020/12/25 05:36:17;;;;;;;0.50;0.50;;;5.90;99.90;;;;;;5034343;28;20176;-55
2020/12/25 05:38:50;;;;;;;0.40;0.40;;;5.80;99.90;;;;;;5036082;28;20191;-55
2020/12/25 05:41:16;;;;;;;1.60;0.47;;;5.80;99.90;;;;;;5034301;28;20191;-54
2020/12/25 05:43:49;;;;;;;0.40;0.40;;;5.80;99.90;;;;;;5032439;28;20339;-49
2020/12/25 05:46:15;;;;;;;0.50;0.50;;;5.80;99.90;;;;;;5033608;28;20631;-52
2020/12/25 05:48:40;;;;;;;0.40;0.40;;;5.90;99.90;;;;;;5034653;28;20199;-53
2020/12/25 05:51:09;;;;;;;1.13;0.60;;;5.80;99.90;;;;;;5034694;28;20184;-56
2020/12/25 05:53:42;;;;;;;0.40;0.40;;;5.80;99.90;;;;;;5034309;28;20294;-54
2020/12/25 05:56:08;;;;;;;0.50;0.50;;;5.90;99.90;;;;;;5035823;28;20180;-52
2020/12/25 05:58:36;;;;;;;0.60;0.60;;;5.80;99.90;;;;;;5034983;28;20199;-54
2020/12/25 06:01:02;;;;;;;0.50;0.50;;;5.80;99.90;;;;;;5034077;28;20199;-56
2020/12/25 06:03:29;;;;;;;0.40;0.40;;;5.80;99.90;;;;;;5034561;28;20180;-49
2020/12/25 06:05:59;;;;;;;0.50;0.50;;;5.70;99.90;;;;;;5033454;28;20207;-55
2020/12/25 06:08:58;;;;;;;0.50;0.50;;;5.70;99.90;;;;;;5034232;28;20192;-49
2020/12/25 06:11:29;;;;;;;0.60;0.60;;;5.70;99.90;;;;;;5031458;28;20195;-57
2020/12/25 06:13:56;;;;;;;0.93;0.70;;;5.70;99.90;;;;;;5034515;28;20203;-55
2020/12/25 06:16:22;;;;;;;0.50;0.50;;;5.70;99.90;;;;;;5034396;28;20516;-57
2020/12/25 06:18:57;;;;;;;0.60;0.60;;;5.60;99.90;;;;;;5034872;28;20282;-57
2020/12/25 06:21:33;;;;;;;0.50;0.50;;;5.60;99.90;;;;;;5034568;28;20178;-53
2020/12/25 06:24:00;;;;;;;0.70;0.70;;;5.60;99.90;;;;;;5034971;28;20172;-55
2020/12/25 06:26:27;;;;;;;0.50;0.50;;;5.60;99.90;;;;;;5035250;28;20187;-52
2020/12/25 06:28:53;;;;;;;0.70;0.70;;;5.60;99.90;;;;;;5030997;28;20278;-55
2020/12/25 06:31:37;;;;;;;0.60;0.60;;;5.60;99.90;;;;;;5033198;28;20184;-52
2020/12/25 06:34:04;;;;;;;1.33;0.70;;;5.60;99.90;;;;;;5037101;28;20554;-53
2020/12/25 06:36:31;;;;;;;0.60;0.60;;;5.60;99.90;;;;;;5036671;28;20172;-56
2020/12/25 06:39:04;;;;;;;0.80;0.80;;;5.70;99.90;;;;;;5025315;28;20208;-51
2020/12/25 06:41:29;;;;;;;0.83;0.83;;;5.70;99.90;;;;;;5036547;28;20238;-52
2020/12/25 06:43:56;;;;;;;0.70;0.70;;;5.70;99.90;;;;;;5036937;28;20274;-54
2020/12/25 06:46:33;;;;;;;0.90;0.90;;;5.60;99.90;;;;;;5036736;28;20180;-55
2020/12/25 06:49:01;;;;;;;1.10;1.00;;;5.60;99.90;;;;;;5033770;28;20686;-50
2020/12/25 06:51:27;;;;;;;0.80;0.80;;;5.70;99.90;;;;;;5037541;28;20247;-56
2020/12/25 06:53:56;;;;;;;1.17;1.10;;;5.70;99.90;;;;;;5037168;28;20231;-51
2020/12/25 06:56:21;;;;;;;1.37;1.27;;;5.70;99.90;;;;;;5036728;28;20718;-53
2020/12/25 06:58:51;;;;;;;1.23;1.13;;;5.70;99.90;;;;;;5036660;28;20200;-52
2020/12/25 07:01:35;;;;;;;1.17;1.10;;;5.70;99.90;;;;;;5037490;28;20247;-55
2020/12/25 07:04:01;;;;;;;1.00;1.00;;;5.70;99.90;;;;;;5037228;28;20649;-50
2020/12/25 07:06:31;;;;;;;1.27;1.17;;;5.70;99.90;;;;;;5036230;28;20187;-54
2020/12/25 07:09:08;;;;;;;1.20;1.20;;;5.70;99.90;;;;;;5036510;28;20278;-56
2020/12/25 07:11:33;;;;;;;1.50;1.40;;;5.70;99.90;;;;;;5036112;28;20187;-49
2020/12/25 07:13:59;;;;;;;1.10;1.10;;;5.70;99.90;;;;;;5037106;28;20207;-49
2020/12/25 07:16:25;;;;;;;0.90;0.90;;;5.70;99.90;;;;;;5037710;28;20180;-55
2020/12/25 07:18:50;;;;;;;0.93;0.93;;;5.70;99.90;;;;;;5037794;28;20661;-49
2020/12/25 07:21:16;;;;;;;1.00;0.90;;;5.70;99.90;;;;;;5035951;28;20172;-55
2020/12/25 07:23:43;;;;;;;0.73;0.73;;;5.60;99.90;;;;;;5036361;28;20187;-55
2020/12/25 07:26:09;;;;;;;0.90;0.90;;;5.60;99.90;;;;;;5037338;28;20527;-58
2020/12/25 07:28:35;;;;;;;0.80;0.80;;;5.60;99.90;;;;;;5035887;28;20694;-56
2020/12/25 07:31:01;;;;;;;0.97;0.97;;;5.60;99.90;;;;;;5036103;28;20286;-54
2020/12/25 07:33:26;;;;;;;1.60;1.50;;;5.50;99.90;;;;;;5036198;28;20302;-54
2020/12/25 07:35:52;;;;;;;1.70;1.60;;;5.50;99.90;;;;;;5035779;28;20202;-52
2020/12/25 07:38:19;;;;;;;1.87;1.77;;;5.50;99.90;;;;;;5035971;28;20196;-57
2020/12/25 07:40:45;;;;;;;2.43;2.23;;;5.50;99.90;;;;;;5035870;28;20540;-56
2020/12/25 07:43:12;;;;;;;2.13;2.03;;;5.50;99.90;;;;;;5034990;28;20656;-54
2020/12/25 07:45:38;;;;;;;1.80;1.70;;;5.50;99.90;;;;;;5036254;28;20180;-56
2020/12/25 07:48:06;;;;;;;8.37;5.70;;;5.50;99.90;;;;;;5035295;28;20204;-49
2020/12/25 07:50:40;;;;;;;58.43;34.10;;;5.50;99.90;;;;;;5036016;28;20220;-50
2020/12/25 07:53:17;;;;;;;110.80;77.27;;;5.50;99.90;;;;;;5036000;28;20194;-51
2020/12/25 07:55:49;;;;;;;51.47;41.30;;;5.50;99.90;;;;;;5036477;28;20171;-52
2020/12/25 07:58:17;;;;;;;5.40;4.57;;;5.40;99.90;;;;;;5036899;28;20196;-53
2020/12/25 08:00:43;;;;;;;67.27;54.97;;;5.30;99.90;;;;;;5036683;28;20520;-54
2020/12/25 08:03:10;;;;;;;192.37;135.53;;;5.20;99.90;;;;;;5036135;28;20176;-52
2020/12/25 08:05:36;;;;;;;16.07;12.57;;;5.10;99.90;;;;;;5035632;28;20175;-49
2020/12/25 08:08:03;;;;;;;7.87;6.40;;;5.10;99.90;;;;;;5034845;28;20196;-54
2020/12/25 08:10:29;;;;;;;2.80;2.60;;;4.90;99.90;;;;;;5036347;28;20179;-54
2020/12/25 08:12:57;;;;;;;2.40;2.07;;;4.80;99.90;;;;;;5032993;28;20269;-56
2020/12/25 08:15:26;;;;;;;8.07;7.20;;;4.80;99.90;;;;;;5034794;28;20183;-57
2020/12/25 08:17:56;;;;;;;20.70;15.23;;;4.70;99.90;;;;;;5034784;28;20211;-50
2020/12/25 08:20:22;;;;;;;2.60;2.40;;;4.60;99.90;;;;;;5034775;28;20575;-50
2020/12/25 08:22:50;;;;;;;13.13;9.67;;;4.40;99.90;;;;;;5035559;28;20640;-56
2020/12/25 08:25:17;;;;;;;13.53;10.83;;;4.30;99.90;;;;;;5035652;28;20207;-50
2020/12/25 08:27:42;;;;;;;4.53;3.50;;;4.30;99.90;;;;;;5029991;28;20203;-52
2020/12/25 08:30:08;;;;;;;32.90;27.13;;;4.30;99.90;;;;;;5025431;28;20207;-56
2020/12/25 08:32:34;;;;;;;8.47;6.97;;;4.30;99.90;;;;;;5024657;28;20207;-55
2020/12/25 08:35:18;;;;;;;6.40;5.57;;;4.40;99.90;;;;;;5024994;28;20176;-52
2020/12/25 08:37:53;;;;;;;4.60;3.70;;;4.30;99.90;;;;;;5024542;28;20597;-50
2020/12/25 08:40:19;;;;;;;2.63;2.43;;;4.20;99.90;;;;;;5034733;28;20241;-56
2020/12/25 08:42:44;;;;;;;4.53;4.13;;;4.10;99.90;;;;;;5017421;28;20620;-57
2020/12/25 08:45:15;;;;;;;10.27;9.30;;;4.10;99.90;;;;;;5035231;28;20176;-57
2020/12/25 08:47:41;;;;;;;2.97;2.77;;;4.10;99.90;;;;;;5033810;28;20208;-56
2020/12/25 08:50:06;;;;;;;0.67;0.67;;;4.10;99.90;;;;;;5034191;28;20184;-55
2020/12/25 08:52:33;;;;;;;1.70;1.60;;;4.10;99.90;;;;;;5029087;28;20212;-58
2020/12/25 08:54:59;;;;;;;1.00;1.00;;;4.00;99.90;;;;;;5025445;28;20176;-51
2020/12/25 08:57:26;;;;;;;1.00;1.00;;;4.00;99.90;;;;;;5030696;28;20669;-55
2020/12/25 09:00:04;;;;;;;1.10;0.90;;;4.00;99.90;;;;;;5025134;28;20177;-58
2020/12/25 09:02:30;;;;;;;1.80;1.70;;;3.90;99.90;;;;;;5013541;28;20223;-58
2020/12/25 09:04:55;;;;;;;1.90;1.80;;;3.90;99.90;;;;;;5027445;28;20183;-57
2020/12/25 09:07:21;;;;;;;1.07;1.07;;;3.90;99.90;;;;;;5032866;28;20176;-55
2020/12/25 09:09:47;;;;;;;1.00;1.00;;;3.90;99.90;;;;;;5009055;28;20192;-57
2020/12/25 09:12:12;;;;;;;0.60;0.60;;;3.90;99.90;;;;;;5016030;28;20175;-51
2020/12/25 09:14:38;;;;;;;0.70;0.70;;;3.90;99.90;;;;;;5024558;28;20303;-56
2020/12/25 09:17:03;;;;;;;0.90;0.90;;;3.90;99.90;;;;;;5026152;28;20216;-55
2020/12/25 09:19:29;;;;;;;0.77;0.77;;;4.00;99.90;;;;;;5027430;28;20249;-53
2020/12/25 09:21:54;;;;;;;1.10;1.10;;;4.00;99.90;;;;;;5027447;28;20187;-56
2020/12/25 09:24:20;;;;;;;0.83;0.83;;;4.00;99.90;;;;;;5036017;28;20191;-57
2020/12/25 09:26:47;;;;;;;1.60;1.50;;;3.90;99.90;;;;;;5031542;28;20226;-57
2020/12/25 09:29:12;;;;;;;1.17;1.10;;;4.00;99.90;;;;;;5033013;28;20207;-55
2020/12/25 09:31:38;;;;;;;1.17;1.10;;;3.90;99.90;;;;;;5032754;28;20207;-57
2020/12/25 09:34:03;;;;;;;1.37;1.20;;;3.90;99.90;;;;;;5032823;28;20204;-52
2020/12/25 09:36:29;;;;;;;1.30;1.20;;;3.90;99.90;;;;;;5028982;28;20177;-55
2020/12/25 09:38:54;;;;;;;1.03;1.03;;;3.90;99.90;;;;;;5013213;28;20250;-57
2020/12/25 09:41:20;;;;;;;2.10;1.40;;;3.90;99.90;;;;;;5020885;28;20175;-53
2020/12/25 09:43:45;;;;;;;1.40;1.30;;;4.00;99.90;;;;;;5033525;28;20668;-54
2020/12/25 09:46:11;;;;;;;1.50;1.40;;;4.10;99.90;;;;;;5033837;28;20193;-51
2020/12/25 09:48:36;;;;;;;1.30;1.20;;;4.00;99.90;;;;;;5028992;28;20255;-53
2020/12/25 09:51:02;;;;;;;1.50;1.40;;;4.10;99.90;;;;;;5029298;28;20180;-56
2020/12/25 09:53:28;;;;;;;1.43;1.33;;;4.10;99.90;;;;;;5022863;28;20671;-55
2020/12/25 09:55:53;;;;;;;1.50;1.40;;;4.10;99.90;;;;;;5031702;28;20187;-57
2020/12/25 09:58:19;;;;;;;1.67;1.40;;;4.10;99.90;;;;;;5028964;28;20219;-54
2020/12/25 10:00:44;;;;;;;1.70;1.50;;;4.10;99.90;;;;;;5025247;28;20697;-56
2020/12/25 10:03:10;;;;;;;1.40;1.30;;;4.10;99.90;;;;;;5031047;28;20586;-55
2020/12/25 10:05:35;;;;;;;1.80;1.70;;;4.10;99.90;;;;;;5022303;28;20187;-58
2020/12/25 10:08:01;;;;;;;1.60;1.50;;;4.10;99.90;;;;;;5017916;28;20207;-57
2020/12/25 10:10:28;;;;;;;1.53;1.43;;;4.10;99.90;;;;;;5035224;28;20206;-57
2020/12/25 10:12:54;;;;;;;1.60;1.50;;;4.10;99.90;;;;;;5013346;28;20583;-53
2020/12/25 10:15:21;;;;;;;1.40;1.30;;;4.10;99.90;;;;;;5036322;28;20658;-57
2020/12/25 10:17:46;;;;;;;1.80;1.70;;;4.10;99.90;;;;;;5033957;28;20243;-55
2020/12/25 10:20:12;;;;;;;1.57;1.47;;;4.10;99.90;;;;;;5029587;28;20184;-58
2020/12/25 10:22:37;;;;;;;1.80;1.70;;;4.10;99.90;;;;;;5035713;28;20714;-57
2020/12/25 10:25:04;;;;;;;2.07;1.90;;;4.00;99.90;;;;;;5037664;28;20188;-52
2020/12/25 10:27:29;;;;;;;2.20;2.10;;;3.90;99.90;;;;;;5036285;28;20184;-53
2020/12/25 10:29:55;;;;;;;2.00;1.90;;;3.80;99.90;;;;;;5032226;28;20321;-57
2020/12/25 10:32:20;;;;;;;2.33;2.23;;;3.70;99.90;;;;;;5022518;28;20708;-57
2020/12/25 10:34:46;;;;;;;2.40;1.90;;;3.70;99.90;;;;;;5036726;28;20271;-56
2020/12/25 10:37:12;;;;;;;2.27;2.17;;;3.70;99.90;;;;;;5035301;28;20194;-54
2020/12/25 10:39:37;;;;;;;4.00;3.60;;;3.80;99.90;;;;;;5032516;28;20242;-55
2020/12/25 10:42:10;;;;;;;2.93;2.63;;;3.80;99.90;;;;;;5035789;28;20187;-54
2020/12/25 10:44:36;;;;;;;2.80;2.60;;;4.00;99.90;;;;;;5035680;28;20184;-57
2020/12/25 10:47:02;;;;;;;2.50;2.30;;;4.00;99.90;;;;;;5035876;28;20176;-58
2020/12/25 10:49:28;;;;;;;2.90;2.70;;;4.00;99.90;;;;;;5033951;28;20214;-58
2020/12/25 10:51:54;;;;;;;2.53;2.33;;;4.00;99.90;;;;;;5036284;28;20659;-53
2020/12/25 10:54:20;;;;;;;2.10;2.00;;;4.00;99.90;;;;;;5035272;28;20210;-51
2020/12/25 10:56:45;;;;;;;3.00;2.80;;;4.00;99.90;;;;;;5035015;28;20263;-54
2020/12/25 10:59:12;;;;;;;2.47;2.27;;;4.00;99.90;;;;;;5032600;28;20309;-56
2020/12/25 11:01:37;;;;;;;3.73;2.57;;;4.00;99.90;;;;;;5035455;28;20180;-52
2020/12/25 11:04:03;;;;;;;2.60;2.40;;;4.10;99.90;;;;;;5030418;28;20206;-58
2020/12/25 11:06:36;;;;;;;2.27;2.17;;;4.10;99.90;;;;;;5034447;28;20175;-55
2020/12/25 11:09:06;;;;;;;2.40;2.20;;;4.20;99.90;;;;;;5032138;28;20282;-53
2020/12/25 11:11:34;;;;;;;2.60;2.40;;;4.30;99.90;;;;;;5032900;28;20263;-57
2020/12/25 11:14:00;;;;;;;2.50;2.30;;;4.30;99.90;;;;;;5034928;28;20704;-57
2020/12/25 11:16:30;;;;;;;2.80;2.60;;;4.20;99.90;;;;;;5034451;28;20184;-58
2020/12/25 11:18:57;;;;;;;2.20;2.10;;;4.10;99.90;;;;;;5018397;28;20223;-55
2020/12/25 11:21:24;;;;;;;2.80;2.60;;;4.10;99.90;;;;;;5033415;28;20187;-53
2020/12/25 11:23:50;;;;;;;2.40;2.20;;;4.10;99.90;;;;;;5033193;28;20705;-56
2020/12/25 11:26:22;;;;;;;2.40;2.30;;;4.00;99.90;;;;;;5034154;28;20812;-56
2020/12/25 11:28:49;;;;;;;2.10;2.00;;;4.00;99.90;;;;;;5029277;28;20203;-50
2020/12/25 11:31:15;;;;;;;2.53;2.33;;;3.90;99.90;;;;;;5025237;28;20180;-52
2020/12/25 11:33:41;;;;;;;2.70;2.50;;;3.80;99.90;;;;;;5025907;28;20291;-52
2020/12/25 11:36:10;;;;;;;2.40;2.20;;;3.80;99.90;;;;;;5034708;28;20539;-57
2020/12/25 11:38:36;;;;;;;2.57;2.37;;;3.80;99.90;;;;;;5026338;28;20561;-58
2020/12/25 11:41:01;;;;;;;2.37;2.27;;;3.90;99.90;;;;;;5013457;28;20629;-56
2020/12/25 11:43:27;;;;;;;3.00;2.30;;;4.10;99.90;;;;;;5029423;28;20192;-52
2020/12/25 11:45:52;;;;;;;2.70;2.50;;;4.20;99.90;;;;;;5034362;28;20176;-56
2020/12/25 11:48:18;;;;;;;2.53;2.33;;;4.20;99.90;;;;;;5029888;28;20196;-58
2020/12/25 11:50:43;;;;;;;3.60;3.30;;;4.30;99.90;;;;;;5014657;28;20184;-57
2020/12/25 11:53:09;;;;;;;2.70;2.50;;;4.30;99.90;;;;;;5018394;28;20235;-51
2020/12/25 11:55:34;;;;;;;2.30;2.17;;;4.30;99.90;;;;;;5023861;28;20238;-59
2020/12/25 11:58:01;;;;;;;3.40;3.10;;;4.30;99.90;;;;;;5027872;28;20215;-58
2020/12/25 12:00:27;;;;;;;2.37;2.27;;;4.30;99.90;;;;;;5028217;28;20598;-61
2020/12/25 12:02:52;;;;;;;2.67;2.47;;;4.30;99.90;;;;;;5033356;28;20832;-59
2020/12/25 12:05:18;;;;;;;2.33;2.20;;;4.20;99.90;;;;;;5032902;28;20210;-61
2020/12/25 12:07:43;;;;;;;4.73;2.83;;;4.20;99.90;;;;;;5032548;28;20660;-55
2020/12/25 12:10:09;;;;;;;2.70;2.50;;;4.20;99.90;;;;;;5031557;28;20245;-57
2020/12/25 12:12:34;;;;;;;2.63;2.40;;;4.30;99.90;;;;;;5034064;28;20234;-57
2020/12/25 12:15:00;;;;;;;2.80;2.60;;;4.40;99.90;;;;;;5033425;28;20260;-56
2020/12/25 12:17:25;;;;;;;2.60;2.40;;;4.40;99.90;;;;;;5033491;28;20183;-53
2020/12/25 12:19:51;;;;;;;2.73;2.53;;;4.50;99.90;;;;;;5033142;28;20184;-53
2020/12/25 12:22:16;;;;;;;2.80;2.60;;;4.60;99.90;;;;;;5033246;28;20230;-54
2020/12/25 12:24:42;;;;;;;3.10;2.80;;;4.70;99.90;;;;;;5026599;28;20241;-58
2020/12/25 12:27:07;;;;;;;2.67;2.47;;;4.80;99.90;;;;;;5034049;28;20278;-57
2020/12/25 12:29:33;;;;;;;2.93;2.73;;;4.80;99.90;;;;;;5028202;28;20284;-59
2020/12/25 12:31:58;;;;;;;2.90;2.70;;;4.90;99.90;;;;;;5022659;28;20183;-59
2020/12/25 12:34:24;;;;;;;3.13;2.73;;;5.00;99.90;;;;;;5023959;28;20210;-53
2020/12/25 12:36:49;;;;;;;2.63;2.43;;;4.90;99.90;;;;;;5022906;28;20192;-55
2020/12/25 12:39:15;;;;;;;2.17;2.07;;;4.90;99.90;;;;;;5018928;28;20204;-58
2020/12/25 12:41:41;;;;;;;2.50;2.30;;;5.00;99.90;;;;;;5026784;28;20255;-58
2020/12/25 12:44:06;;;;;;;3.50;2.60;;;5.10;99.90;;;;;;5026262;28;20188;-54
2020/12/25 12:46:32;;;;;;;2.30;2.20;;;5.10;99.90;;;;;;5028087;28;20176;-56
2020/12/25 12:48:57;;;;;;;2.70;2.50;;;5.10;99.90;;;;;;5003476;28;20212;-49
2020/12/25 12:51:23;;;;;;;2.40;2.30;;;5.10;99.90;;;;;;5018136;28;20208;-60